Time;durP1;ratioP1;P1;durP2;ratioP2;P2;SDS_P1;SDS_P2;PMS_P1;PMS_P2;Temp;Humidity;BMP_temperature;BMP_pressure;BME280_temperature;BME280_humidity;BME280_pressure;Samples;Min_cycle;Max_cycle;Signal;HPM_P1;HPM_P2
2023/07/27 00:00:36;;;;;;;7.32;2.55;;;18.10;99.90;;;;;;5132327;27;20024;-75
2023/07/27 00:03:02;;;;;;;6.57;2.90;;;18.10;99.90;;;;;;5132459;27;20461;-75
2023/07/27 00:05:28;;;;;;;6.68;2.72;;;18.10;99.90;;;;;;5131453;27;20023;-75
2023/07/27 00:07:53;;;;;;;10.38;3.13;;;18.00;99.90;;;;;;5132187;27;20060;-75
2023/07/27 00:10:20;;;;;;;6.80;2.40;;;18.00;99.90;;;;;;5119629;27;20024;-75
2023/07/27 00:12:46;;;;;;;5.22;2.60;;;18.00;99.90;;;;;;5131949;27;20042;-75
2023/07/27 00:15:12;;;;;;;7.15;2.75;;;17.90;99.90;;;;;;5132492;27;20031;-75
2023/07/27 00:17:39;;;;;;;8.35;3.13;;;17.80;99.90;;;;;;5145912;27;20019;-75
2023/07/27 00:20:05;;;;;;;8.27;3.13;;;17.80;99.90;;;;;;5130677;27;20558;-75
2023/07/27 00:22:30;;;;;;;7.35;3.38;;;17.70;99.90;;;;;;5134767;27;20028;-75
2023/07/27 00:24:56;;;;;;;7.93;3.63;;;17.60;99.90;;;;;;5133539;27;20030;-75
2023/07/27 00:27:22;;;;;;;6.32;3.10;;;17.50;99.90;;;;;;5132007;27;20023;-75
2023/07/27 00:29:47;;;;;;;7.68;3.35;;;17.40;99.90;;;;;;5126265;27;20018;-75
2023/07/27 00:32:13;;;;;;;11.27;3.85;;;17.30;99.90;;;;;;5131854;27;20027;-75
2023/07/27 00:34:39;;;;;;;7.65;3.80;;;17.20;99.90;;;;;;5129301;27;20038;-75
2023/07/27 00:37:04;;;;;;;8.57;4.10;;;17.20;99.90;;;;;;5132229;27;20011;-75
2023/07/27 00:39:30;;;;;;;7.20;4.28;;;17.20;99.90;;;;;;5132775;27;20023;-75
2023/07/27 00:41:56;;;;;;;8.90;3.92;;;17.20;99.90;;;;;;5132570;27;20023;-75
2023/07/27 00:44:21;;;;;;;8.52;4.28;;;17.10;99.90;;;;;;5131327;27;20475;-75
2023/07/27 00:46:47;;;;;;;8.50;4.10;;;17.10;99.90;;;;;;5131469;27;20015;-75
2023/07/27 00:49:13;;;;;;;11.20;4.60;;;17.00;99.90;;;;;;5120386;27;20032;-75
2023/07/27 00:51:41;;;;;;;9.80;4.38;;;17.00;99.90;;;;;;5130911;27;20047;-75
2023/07/27 00:54:10;;;;;;;11.00;5.05;;;17.00;99.90;;;;;;5132328;27;20398;-75
2023/07/27 00:56:37;;;;;;;12.23;4.88;;;17.00;99.90;;;;;;5122253;27;20027;-75
2023/07/27 00:59:03;;;;;;;8.60;4.38;;;16.90;99.90;;;;;;5113250;27;20011;-75
2023/07/27 01:01:29;;;;;;;12.38;5.28;;;16.90;99.90;;;;;;5131613;27;20034;-75
2023/07/27 01:03:55;;;;;;;8.63;4.47;;;16.90;99.90;;;;;;5112811;27;20475;-74
2023/07/27 01:06:21;;;;;;;8.85;4.82;;;16.90;99.90;;;;;;5131693;27;20039;-74
2023/07/27 01:08:47;;;;;;;9.07;5.28;;;16.90;99.90;;;;;;5131187;28;20026;-75
2023/07/27 01:11:31;;;;;;;8.30;5.00;;;16.90;99.90;;;;;;5129215;28;20031;-75
2023/07/27 01:13:57;;;;;;;8.88;4.75;;;16.90;99.90;;;;;;5131308;28;20024;-74
2023/07/27 01:16:36;;;;;;;9.23;4.70;;;16.80;99.90;;;;;;5105403;28;20028;-74
2023/07/27 01:19:34;;;;;;;7.97;4.18;;;16.80;99.90;;;;;;5102622;28;20120;-74
2023/07/27 01:22:16;;;;;;;7.63;3.80;;;16.80;99.90;;;;;;5130943;28;20079;-74
2023/07/27 01:24:51;;;;;;;5.80;3.38;;;16.70;99.90;;;;;;5131364;28;20112;-74
2023/07/27 01:27:53;;;;;;;7.45;3.65;;;16.70;99.90;;;;;;5131505;28;20463;-74
2023/07/27 01:31:08;;;;;;;6.28;3.10;;;16.70;99.90;;;;;;5099607;28;20024;-75
2023/07/27 01:33:40;;;;;;;7.88;3.83;;;16.70;99.90;;;;;;5047005;28;20477;-74
2023/07/27 01:36:13;;;;;;;7.00;3.45;;;16.60;99.90;;;;;;5050134;28;20018;-75
2023/07/27 01:38:42;;;;;;;5.90;3.42;;;16.60;99.90;;;;;;5084981;28;20216;-75
2023/07/27 01:41:10;;;;;;;6.88;3.70;;;16.60;99.90;;;;;;5130904;28;20027;-74
2023/07/27 01:43:38;;;;;;;4.85;3.20;;;16.60;99.90;;;;;;5123528;28;20020;-74
2023/07/27 01:46:05;;;;;;;6.03;3.47;;;16.50;99.90;;;;;;5107592;28;20023;-75
2023/07/27 01:48:32;;;;;;;7.10;3.47;;;16.50;99.90;;;;;;5130985;28;20506;-74
2023/07/27 01:50:58;;;;;;;7.65;3.95;;;16.50;99.90;;;;;;5130632;28;20019;-74
2023/07/27 01:53:25;;;;;;;8.77;3.83;;;16.50;99.90;;;;;;5125741;28;20072;-75
2023/07/27 01:55:52;;;;;;;7.35;3.95;;;16.50;99.90;;;;;;5132424;27;20038;-75
2023/07/27 01:58:19;;;;;;;5.45;3.70;;;16.50;99.90;;;;;;5131683;27;20045;-75
2023/07/27 02:00:46;;;;;;;8.45;4.20;;;16.50;99.90;;;;;;5135146;27;20023;-75
2023/07/27 02:03:12;;;;;;;9.90;4.65;;;16.50;99.90;;;;;;5134254;27;20016;-75
2023/07/27 02:05:38;;;;;;;8.43;4.50;;;16.50;99.90;;;;;;5134541;27;20023;-75
2023/07/27 02:08:03;;;;;;;7.43;4.35;;;16.50;99.90;;;;;;5134470;27;20619;-75
2023/07/27 02:10:30;;;;;;;7.40;4.55;;;16.50;99.90;;;;;;5121816;27;20020;-75
2023/07/27 02:13:04;;;;;;;8.38;4.30;;;16.50;99.90;;;;;;5134450;27;20379;-75
2023/07/27 02:15:38;;;;;;;7.28;4.07;;;16.50;99.90;;;;;;5134397;27;20034;-75
2023/07/27 02:18:14;;;;;;;9.15;4.50;;;16.50;99.90;;;;;;5134525;27;20042;-75
2023/07/27 02:20:40;;;;;;;7.07;4.53;;;16.50;99.90;;;;;;5120239;27;20029;-76
2023/07/27 02:23:07;;;;;;;7.20;4.88;;;16.50;99.90;;;;;;5109434;27;20033;-75
2023/07/27 02:25:33;;;;;;;8.93;5.05;;;16.50;99.90;;;;;;5134442;27;20023;-75
2023/07/27 02:27:59;;;;;;;8.68;5.15;;;16.50;99.90;;;;;;5125622;27;20007;-75
2023/07/27 02:30:25;;;;;;;9.30;5.25;;;16.50;99.90;;;;;;5126436;27;20437;-75
2023/07/27 02:32:50;;;;;;;10.95;5.25;;;16.50;99.90;;;;;;5129161;27;20084;-75
2023/07/27 02:35:16;;;;;;;8.77;5.22;;;16.50;99.90;;;;;;5127136;27;20386;-75
2023/07/27 02:37:41;;;;;;;11.02;6.25;;;16.50;99.90;;;;;;5121323;27;20028;-75
2023/07/27 02:40:08;;;;;;;10.80;6.57;;;16.40;99.90;;;;;;5132418;27;20030;-75
2023/07/27 02:42:34;;;;;;;11.93;7.15;;;16.40;99.90;;;;;;5115505;27;20484;-75
2023/07/27 02:44:59;;;;;;;11.35;7.10;;;16.40;99.90;;;;;;5134052;27;20092;-75
2023/07/27 02:47:25;;;;;;;9.70;7.35;;;16.40;99.90;;;;;;5134052;27;20011;-75
2023/07/27 02:49:50;;;;;;;13.23;7.88;;;16.40;99.90;;;;;;5129831;27;20020;-75
2023/07/27 02:52:16;;;;;;;11.98;8.45;;;16.40;99.90;;;;;;5112457;27;20045;-75
2023/07/27 02:54:42;;;;;;;13.00;8.60;;;16.40;99.90;;;;;;5029656;28;20048;-75
2023/07/27 02:57:07;;;;;;;14.15;9.35;;;16.40;99.90;;;;;;5029509;28;20037;-75
2023/07/27 02:59:33;;;;;;;14.30;9.00;;;16.30;99.90;;;;;;5029597;28;20025;-75
2023/07/27 03:01:59;;;;;;;12.57;9.48;;;16.30;99.90;;;;;;5029384;28;20021;-75
2023/07/27 03:04:24;;;;;;;14.82;9.82;;;16.30;99.90;;;;;;5021044;28;20094;-75
2023/07/27 03:06:50;;;;;;;13.93;9.65;;;16.30;99.90;;;;;;5028373;28;20474;-75
2023/07/27 03:09:15;;;;;;;13.68;9.77;;;16.30;99.90;;;;;;5029235;28;20376;-75
2023/07/27 03:11:41;;;;;;;12.65;9.27;;;16.30;99.90;;;;;;5016977;28;20097;-75
2023/07/27 03:14:07;;;;;;;13.57;9.65;;;16.30;99.90;;;;;;5027492;28;20409;-75
2023/07/27 03:16:32;;;;;;;13.88;9.35;;;16.30;99.90;;;;;;5028969;28;20100;-75
2023/07/27 03:18:58;;;;;;;14.32;9.20;;;16.20;99.90;;;;;;5028772;28;20105;-75
2023/07/27 03:21:24;;;;;;;14.18;9.15;;;16.20;99.90;;;;;;5028822;28;20101;-75
2023/07/27 03:23:50;;;;;;;14.27;10.02;;;16.20;99.90;;;;;;5029284;28;20070;-75
2023/07/27 03:26:16;;;;;;;15.65;9.20;;;16.20;99.90;;;;;;5029026;28;20095;-75
2023/07/27 03:28:42;;;;;;;14.18;9.50;;;16.20;99.90;;;;;;5029029;28;20030;-75
2023/07/27 03:31:33;;;;;;;13.13;9.40;;;16.20;99.90;;;;;;5029175;28;20044;-75
2023/07/27 03:33:58;;;;;;;13.60;9.20;;;16.20;99.90;;;;;;5029031;28;20039;-75
2023/07/27 03:36:24;;;;;;;15.50;9.05;;;16.20;99.90;;;;;;5029229;28;20021;-75
2023/07/27 03:38:50;;;;;;;18.60;8.30;;;16.10;99.90;;;;;;5034069;28;20092;-75
2023/07/27 03:41:15;;;;;;;12.05;8.82;;;16.10;99.90;;;;;;5043000;27;20021;-74
2023/07/27 03:43:41;;;;;;;13.65;9.18;;;16.10;99.90;;;;;;5105154;28;20112;-75
2023/07/27 03:46:07;;;;;;;15.57;9.05;;;16.10;99.90;;;;;;5030011;28;20013;-75
2023/07/27 03:48:32;;;;;;;11.45;8.00;;;16.10;99.90;;;;;;5028910;28;20029;-75
2023/07/27 03:51:02;;;;;;;10.52;7.90;;;16.00;99.90;;;;;;5040419;27;20024;-75
2023/07/27 03:53:28;;;;;;;11.75;8.63;;;16.10;99.90;;;;;;5126132;27;20023;-75
2023/07/27 03:55:54;;;;;;;11.75;8.05;;;16.00;99.90;;;;;;5126807;27;20379;-75
2023/07/27 03:58:20;;;;;;;11.50;8.05;;;16.00;99.90;;;;;;5126044;27;20019;-75
2023/07/27 04:00:45;;;;;;;11.50;8.35;;;16.00;99.90;;;;;;5124097;27;20026;-75
2023/07/27 04:03:11;;;;;;;12.30;8.25;;;16.10;99.90;;;;;;5132177;27;20568;-75
2023/07/27 04:05:37;;;;;;;11.07;7.68;;;16.00;99.90;;;;;;5132233;27;20024;-75
2023/07/27 04:08:02;;;;;;;11.85;7.78;;;16.00;99.90;;;;;;5127310;27;20027;-75
2023/07/27 04:10:29;;;;;;;11.27;7.32;;;16.00;99.90;;;;;;5132033;27;20546;-75
2023/07/27 04:12:55;;;;;;;9.73;7.35;;;16.00;99.90;;;;;;5132329;27;20031;-75
2023/07/27 04:15:21;;;;;;;11.70;6.85;;;16.10;99.90;;;;;;5132296;27;20037;-74
2023/07/27 04:17:46;;;;;;;9.55;7.43;;;16.00;99.90;;;;;;5132014;27;20102;-75
2023/07/27 04:20:12;;;;;;;10.57;7.80;;;16.10;99.90;;;;;;5131805;27;20090;-75
2023/07/27 04:22:38;;;;;;;10.52;7.38;;;16.10;99.90;;;;;;5131914;27;20396;-75
2023/07/27 04:25:04;;;;;;;12.13;7.72;;;16.10;99.90;;;;;;5131918;27;20058;-74
2023/07/27 04:27:29;;;;;;;10.73;7.63;;;16.10;99.90;;;;;;5131392;27;20071;-74
2023/07/27 04:29:55;;;;;;;11.05;7.90;;;16.10;99.90;;;;;;5131483;27;20016;-74
2023/07/27 04:32:21;;;;;;;8.63;7.00;;;16.10;99.90;;;;;;5131654;27;20031;-74
2023/07/27 04:34:47;;;;;;;9.77;7.13;;;16.10;99.90;;;;;;5113126;27;20022;-74
2023/07/27 04:37:12;;;;;;;9.02;7.05;;;16.10;99.90;;;;;;5131631;27;20507;-74
2023/07/27 04:39:38;;;;;;;9.32;6.60;;;16.10;99.90;;;;;;5131466;27;20055;-74
2023/07/27 04:42:04;;;;;;;8.27;6.75;;;16.20;99.90;;;;;;5131656;27;20160;-74
2023/07/27 04:44:29;;;;;;;9.15;7.20;;;16.20;99.90;;;;;;5131498;27;20069;-74
2023/07/27 04:46:55;;;;;;;8.95;6.28;;;16.20;99.90;;;;;;5131578;27;20479;-75
2023/07/27 04:49:21;;;;;;;9.07;7.15;;;16.20;99.90;;;;;;5131743;27;20090;-75
2023/07/27 04:51:46;;;;;;;9.18;6.32;;;16.20;99.90;;;;;;5131547;27;20069;-74
2023/07/27 04:54:12;;;;;;;9.88;6.20;;;16.30;99.90;;;;;;5131590;27;20019;-74
2023/07/27 04:56:38;;;;;;;7.63;5.70;;;16.20;99.90;;;;;;5124287;27;20023;-75
2023/07/27 04:59:03;;;;;;;7.25;4.93;;;16.30;99.90;;;;;;5109360;28;20111;-75
2023/07/27 05:01:29;;;;;;;5.90;4.70;;;16.30;99.90;;;;;;5129170;27;20015;-75
2023/07/27 05:03:55;;;;;;;5.22;4.03;;;16.30;99.90;;;;;;5131639;27;20015;-75
2023/07/27 05:06:20;;;;;;;6.30;4.13;;;16.40;99.90;;;;;;5131261;27;20019;-75
2023/07/27 05:08:46;;;;;;;6.22;4.28;;;16.40;99.90;;;;;;5131314;27;20436;-75
2023/07/27 05:11:12;;;;;;;4.03;3.63;;;16.40;99.90;;;;;;5130987;28;20036;-75
2023/07/27 05:13:37;;;;;;;5.43;3.70;;;16.50;99.90;;;;;;5131010;28;20539;-75
2023/07/27 05:16:03;;;;;;;5.30;3.67;;;16.50;99.90;;;;;;5131092;28;20031;-75
2023/07/27 05:18:29;;;;;;;4.13;3.47;;;16.50;99.90;;;;;;5131094;28;20025;-75
2023/07/27 05:20:55;;;;;;;4.00;3.60;;;16.50;99.90;;;;;;5120959;28;20049;-75
2023/07/27 05:23:21;;;;;;;3.80;3.40;;;16.60;99.90;;;;;;5131348;28;20020;-75
2023/07/27 05:25:47;;;;;;;4.20;3.80;;;16.60;99.90;;;;;;5130956;28;20030;-75
2023/07/27 05:28:13;;;;;;;4.28;3.75;;;16.60;99.90;;;;;;5131405;28;20027;-75
2023/07/27 05:30:41;;;;;;;5.10;3.42;;;16.60;99.90;;;;;;5126439;27;20547;-74
2023/07/27 05:33:06;;;;;;;4.95;4.00;;;16.60;99.90;;;;;;5116692;27;20083;-74
2023/07/27 05:35:32;;;;;;;4.43;3.90;;;16.70;99.90;;;;;;5135000;27;20532;-74
2023/07/27 05:37:57;;;;;;;4.82;3.83;;;16.70;99.90;;;;;;5135000;27;20015;-74
2023/07/27 05:40:23;;;;;;;4.20;3.80;;;16.70;99.90;;;;;;5134578;27;20030;-74
2023/07/27 05:42:49;;;;;;;4.35;3.95;;;16.70;99.90;;;;;;5127458;27;20080;-74
2023/07/27 05:45:14;;;;;;;5.70;3.95;;;16.70;99.90;;;;;;5125792;27;20022;-75
2023/07/27 05:47:40;;;;;;;4.32;3.80;;;16.80;99.90;;;;;;5134985;27;20019;-76
2023/07/27 05:50:06;;;;;;;4.13;3.50;;;16.80;99.90;;;;;;5135165;27;20136;-75
2023/07/27 05:52:32;;;;;;;3.95;3.47;;;16.80;99.90;;;;;;5134544;27;20122;-75
2023/07/27 05:54:58;;;;;;;4.15;3.47;;;16.80;99.90;;;;;;5134995;27;20176;-75
2023/07/27 05:57:24;;;;;;;6.30;4.07;;;16.90;99.90;;;;;;5134462;27;20023;-75
2023/07/27 05:59:50;;;;;;;4.65;3.90;;;16.90;99.90;;;;;;5135151;27;20011;-74
2023/07/27 06:02:15;;;;;;;4.75;4.07;;;16.90;99.90;;;;;;5134425;27;20027;-74
2023/07/27 06:04:41;;;;;;;4.25;3.60;;;16.90;99.90;;;;;;5131448;27;20428;-74
2023/07/27 06:07:07;;;;;;;4.15;3.47;;;17.00;99.90;;;;;;5115898;27;20016;-75
2023/07/27 06:09:36;;;;;;;4.47;2.78;;;17.00;99.90;;;;;;5134449;27;20576;-75
2023/07/27 06:12:11;;;;;;;7.07;3.10;;;17.00;99.90;;;;;;5134981;27;20398;-74
2023/07/27 06:14:40;;;;;;;8.45;2.88;;;17.00;99.90;;;;;;5134715;27;20027;-75
2023/07/27 06:17:06;;;;;;;6.28;2.78;;;17.00;99.90;;;;;;5123348;27;20152;-75
2023/07/27 06:19:32;;;;;;;8.10;2.83;;;17.10;99.90;;;;;;5134573;27;20489;-75
2023/07/27 06:21:58;;;;;;;9.63;3.08;;;17.10;99.90;;;;;;5129662;27;20026;-75
2023/07/27 06:24:23;;;;;;;5.65;2.78;;;17.10;99.90;;;;;;5130342;27;20024;-74
2023/07/27 06:26:49;;;;;;;6.10;2.67;;;17.20;99.90;;;;;;5136135;27;20079;-74
2023/07/27 06:29:15;;;;;;;3.95;2.45;;;17.20;99.90;;;;;;5116102;27;20017;-74
2023/07/27 06:31:40;;;;;;;5.32;2.63;;;17.30;99.90;;;;;;5133748;27;20034;-75
2023/07/27 06:34:06;;;;;;;6.38;2.63;;;17.30;99.90;;;;;;5139451;27;20018;-75
2023/07/27 06:36:31;;;;;;;6.30;2.35;;;17.30;99.90;;;;;;5152025;27;20375;-75
2023/07/27 06:38:57;;;;;;;7.68;2.22;;;17.30;99.90;;;;;;5139832;27;20024;-74
2023/07/27 06:41:25;;;;;;;6.88;2.78;;;17.30;99.90;;;;;;5134347;27;20745;-75
2023/07/27 06:43:52;;;;;;;6.57;2.47;;;17.30;99.90;;;;;;5133383;27;20457;-75
2023/07/27 06:46:18;;;;;;;8.25;3.13;;;17.30;99.90;;;;;;5133817;27;20027;-75
2023/07/27 06:48:46;;;;;;;9.57;3.30;;;17.30;99.90;;;;;;5133572;27;20050;-74
2023/07/27 06:51:12;;;;;;;10.63;3.38;;;17.30;99.90;;;;;;5133913;27;20039;-73
2023/07/27 06:53:38;;;;;;;9.93;3.83;;;17.30;99.90;;;;;;5133643;27;20035;-74
2023/07/27 06:56:04;;;;;;;16.70;4.05;;;17.30;99.90;;;;;;5133659;27;20122;-74
2023/07/27 06:58:30;;;;;;;11.77;4.00;;;17.40;99.90;;;;;;5114785;27;20019;-74
2023/07/27 07:00:56;;;;;;;15.30;4.22;;;17.40;99.90;;;;;;5133735;27;20022;-74
2023/07/27 07:03:22;;;;;;;13.80;3.75;;;17.40;99.90;;;;;;5133453;27;20093;-74
2023/07/27 07:05:47;;;;;;;8.90;3.83;;;17.40;99.90;;;;;;5133355;27;20092;-74
2023/07/27 07:08:13;;;;;;;10.48;3.88;;;17.40;99.90;;;;;;5132989;27;20023;-74
2023/07/27 07:10:39;;;;;;;10.13;2.97;;;17.50;99.90;;;;;;5133614;27;20046;-74
2023/07/27 07:13:04;;;;;;;9.00;2.60;;;17.50;99.90;;;;;;5133198;27;20027;-74
2023/07/27 07:15:30;;;;;;;8.55;2.60;;;17.50;99.90;;;;;;5133435;27;20023;-74
2023/07/27 07:17:56;;;;;;;7.70;2.60;;;17.50;99.90;;;;;;5133128;27;20079;-74
2023/07/27 07:20:21;;;;;;;9.07;2.70;;;17.50;99.90;;;;;;5133487;27;20023;-74
2023/07/27 07:22:47;;;;;;;7.05;2.60;;;17.60;99.90;;;;;;5132895;27;20031;-74
2023/07/27 07:25:13;;;;;;;7.90;2.28;;;17.60;99.90;;;;;;5133112;27;20050;-74
2023/07/27 07:27:38;;;;;;;7.50;2.42;;;17.60;99.90;;;;;;5132975;27;20031;-74
2023/07/27 07:30:05;;;;;;;5.05;2.00;;;17.60;99.90;;;;;;5132935;27;20104;-74
2023/07/27 07:32:33;;;;;;;9.20;2.47;;;17.60;99.90;;;;;;5132622;27;21343;-74
2023/07/27 07:34:59;;;;;;;10.13;2.40;;;17.60;99.90;;;;;;5133022;27;20500;-74
2023/07/27 07:37:25;;;;;;;10.85;2.42;;;17.60;99.90;;;;;;5132600;27;20090;-74
2023/07/27 07:39:50;;;;;;;8.55;2.88;;;17.70;99.90;;;;;;5133073;27;20018;-74
2023/07/27 07:42:16;;;;;;;10.15;2.70;;;17.70;99.90;;;;;;5133069;27;20427;-75
2023/07/27 07:44:42;;;;;;;11.02;2.90;;;17.70;99.90;;;;;;5127808;27;20026;-75
2023/07/27 07:47:08;;;;;;;11.35;2.45;;;17.70;99.90;;;;;;5127091;27;20483;-74
2023/07/27 07:49:33;;;;;;;12.02;2.40;;;17.70;99.90;;;;;;5133382;27;20023;-75
2023/07/27 07:51:59;;;;;;;10.90;2.63;;;17.70;99.90;;;;;;5132656;27;20592;-75
2023/07/27 07:54:29;;;;;;;13.38;2.70;;;17.70;99.90;;;;;;5118013;27;20023;-75
2023/07/27 07:56:55;;;;;;;9.10;3.00;;;17.80;99.90;;;;;;5132812;27;20076;-74
2023/07/27 07:59:21;;;;;;;8.27;2.90;;;17.70;99.90;;;;;;5133036;27;20023;-74
2023/07/27 08:01:46;;;;;;;8.45;2.78;;;17.80;99.90;;;;;;5133091;27;20022;-74
2023/07/27 08:04:12;;;;;;;8.90;2.67;;;17.80;99.90;;;;;;5133616;27;20106;-74
2023/07/27 08:06:38;;;;;;;9.27;2.60;;;17.80;99.90;;;;;;5133175;27;20460;-75
2023/07/27 08:09:03;;;;;;;12.05;3.00;;;17.80;99.90;;;;;;5132354;27;20022;-75
2023/07/27 08:11:29;;;;;;;10.45;2.40;;;17.80;99.90;;;;;;5132680;27;20028;-75
2023/07/27 08:13:55;;;;;;;11.45;2.50;;;17.80;99.90;;;;;;5133480;27;20098;-75
2023/07/27 08:16:21;;;;;;;11.23;2.80;;;17.80;99.90;;;;;;5133113;27;20387;-75
2023/07/27 08:18:46;;;;;;;13.57;2.63;;;17.90;99.90;;;;;;5133042;27;20049;-74
2023/07/27 08:21:12;;;;;;;11.63;2.60;;;17.90;99.90;;;;;;5133029;27;20024;-75
2023/07/27 08:23:38;;;;;;;16.30;3.03;;;17.90;99.90;;;;;;5133307;27;20056;-75
2023/07/27 08:26:08;;;;;;;15.93;2.80;;;17.90;99.90;;;;;;5133368;27;20064;-75
2023/07/27 08:28:34;;;;;;;15.60;2.40;;;18.00;99.90;;;;;;5133086;27;20098;-74
2023/07/27 08:31:04;;;;;;;11.10;2.30;;;18.00;99.90;;;;;;5133257;27;20043;-75
2023/07/27 08:33:31;;;;;;;7.72;1.80;;;18.00;99.90;;;;;;5133117;27;20061;-74
2023/07/27 08:35:57;;;;;;;10.77;2.50;;;18.00;99.90;;;;;;5132979;27;20030;-74
2023/07/27 08:38:24;;;;;;;19.13;2.55;;;18.10;99.90;;;;;;5131857;27;20045;-74
2023/07/27 08:41:00;;;;;;;15.90;2.92;;;18.10;99.90;;;;;;5133418;27;20148;-75
2023/07/27 08:43:27;;;;;;;18.48;3.13;;;18.10;99.90;;;;;;5134404;27;20019;-75
2023/07/27 08:45:53;;;;;;;11.43;2.35;;;18.10;99.90;;;;;;5133659;27;20119;-75
2023/07/27 08:48:20;;;;;;;14.73;2.95;;;18.10;99.90;;;;;;5131967;27;20023;-75
2023/07/27 08:50:48;;;;;;;11.30;2.45;;;18.20;99.90;;;;;;5131161;27;20054;-75
2023/07/27 08:53:14;;;;;;;11.05;2.20;;;18.20;99.90;;;;;;5132147;27;20375;-75
2023/07/27 08:55:41;;;;;;;7.93;1.98;;;18.20;99.90;;;;;;5131747;27;20403;-75
2023/07/27 08:58:08;;;;;;;11.60;2.55;;;18.30;99.90;;;;;;5127546;27;20098;-74
2023/07/27 09:00:34;;;;;;;7.95;1.80;;;18.30;99.90;;;;;;5129051;27;20008;-75
2023/07/27 09:03:00;;;;;;;7.85;1.83;;;18.30;99.90;;;;;;5131905;27;20023;-74
2023/07/27 09:05:59;;;;;;;5.55;1.73;;;18.30;99.90;;;;;;5130723;27;20015;-75
2023/07/27 09:08:28;;;;;;;4.18;1.20;;;18.40;99.90;;;;;;5131312;27;20023;-75
2023/07/27 09:10:54;;;;;;;6.53;1.48;;;18.30;99.90;;;;;;5131597;28;20015;-75
2023/07/27 09:13:19;;;;;;;10.57;1.70;;;18.30;99.90;;;;;;5130904;28;20525;-75
2023/07/27 09:15:45;;;;;;;7.90;1.40;;;18.40;99.90;;;;;;5131196;28;20019;-75
2023/07/27 09:18:14;;;;;;;6.07;1.48;;;18.40;99.90;;;;;;5130061;28;20046;-75
2023/07/27 09:20:40;;;;;;;10.77;1.63;;;18.50;99.90;;;;;;5113324;28;20031;-75
2023/07/27 09:23:06;;;;;;;8.02;1.70;;;18.50;99.90;;;;;;5128464;28;20103;-74
2023/07/27 09:25:33;;;;;;;8.18;2.05;;;18.50;99.90;;;;;;5122722;28;20035;-75
2023/07/27 09:27:59;;;;;;;8.35;1.80;;;18.50;99.90;;;;;;5134020;28;20007;-74
2023/07/27 09:30:26;;;;;;;7.65;1.65;;;18.60;99.90;;;;;;5137201;28;20020;-75
2023/07/27 09:32:52;;;;;;;9.95;2.00;;;18.60;99.90;;;;;;5144744;28;20016;-74
2023/07/27 09:35:19;;;;;;;12.48;2.05;;;18.60;99.90;;;;;;5136493;28;20100;-75
2023/07/27 09:37:50;;;;;;;14.35;2.25;;;18.60;99.90;;;;;;5132122;28;20019;-75
2023/07/27 09:40:22;;;;;;;7.10;2.15;;;18.60;99.90;;;;;;5131424;28;20023;-75
2023/07/27 09:42:48;;;;;;;8.82;2.13;;;18.70;99.90;;;;;;5118911;28;20340;-75
2023/07/27 09:45:14;;;;;;;9.20;2.33;;;18.60;99.90;;;;;;5120289;28;20039;-74
2023/07/27 09:47:41;;;;;;;10.65;2.38;;;18.60;99.90;;;;;;5107843;28;20011;-75
2023/07/27 09:50:08;;;;;;;10.30;2.20;;;18.60;99.90;;;;;;5123158;28;20034;-75
2023/07/27 09:52:36;;;;;;;9.85;2.67;;;18.60;99.90;;;;;;5122230;28;20057;-74
2023/07/27 09:55:02;;;;;;;8.40;2.08;;;18.60;99.90;;;;;;5131037;28;20049;-75
2023/07/27 09:57:27;;;;;;;9.75;2.30;;;18.60;99.90;;;;;;5112343;28;20031;-75
2023/07/27 09:59:53;;;;;;;12.23;2.35;;;18.60;99.90;;;;;;5125243;28;20034;-75
2023/07/27 10:02:21;;;;;;;12.32;2.55;;;18.60;99.90;;;;;;5130717;28;20046;-74
2023/07/27 10:04:49;;;;;;;11.52;2.50;;;18.60;99.90;;;;;;5130643;28;20015;-74
2023/07/27 10:07:19;;;;;;;8.80;2.28;;;18.60;99.90;;;;;;5128778;28;20031;-74
2023/07/27 10:09:46;;;;;;;10.27;2.25;;;18.70;99.90;;;;;;5130731;28;20033;-75
2023/07/27 10:12:27;;;;;;;9.60;1.90;;;18.70;99.90;;;;;;5130691;28;20039;-75
2023/07/27 10:15:25;;;;;;;7.70;2.08;;;18.80;99.90;;;;;;5130782;28;20040;-75
2023/07/27 10:17:56;;;;;;;8.85;2.10;;;18.90;99.90;;;;;;5133793;27;20495;-75
2023/07/27 10:20:33;;;;;;;3.65;1.60;;;18.90;99.90;;;;;;5134681;27;20026;-75
2023/07/27 10:23:20;;;;;;;8.90;1.90;;;18.90;99.90;;;;;;5134302;27;20072;-75
2023/07/27 10:25:54;;;;;;;6.57;1.92;;;19.00;99.90;;;;;;5121189;27;20114;-75
2023/07/27 10:28:43;;;;;;;7.45;1.80;;;19.00;99.90;;;;;;5134327;27;20094;-75
2023/07/27 10:31:24;;;;;;;5.43;2.00;;;19.00;99.90;;;;;;5134070;27;20038;-75
2023/07/27 10:33:55;;;;;;;2.38;1.35;;;18.90;99.90;;;;;;5134222;27;20011;-75
2023/07/27 10:36:22;;;;;;;3.83;1.30;;;18.90;99.90;;;;;;5134139;27;20019;-75
2023/07/27 10:38:54;;;;;;;7.10;1.60;;;18.90;99.90;;;;;;5133984;27;20471;-74
2023/07/27 10:41:22;;;;;;;5.47;1.85;;;18.90;99.90;;;;;;5115770;27;20030;-75
2023/07/27 10:44:06;;;;;;;7.00;1.98;;;19.00;99.90;;;;;;5121377;27;20020;-75
2023/07/27 10:46:35;;;;;;;6.35;1.70;;;19.00;99.90;;;;;;5115087;27;20012;-75
2023/07/27 10:49:08;;;;;;;8.00;1.95;;;19.00;99.90;;;;;;5128019;27;20026;-74
2023/07/27 10:51:34;;;;;;;8.15;1.92;;;19.10;99.90;;;;;;5123787;27;20039;-75
2023/07/27 10:53:59;;;;;;;5.30;1.83;;;19.10;99.90;;;;;;5133925;27;20022;-75
2023/07/27 10:56:26;;;;;;;7.30;2.10;;;19.10;99.90;;;;;;5133580;27;20019;-75
2023/07/27 10:58:58;;;;;;;6.80;2.20;;;19.10;99.90;;;;;;5133534;27;20043;-75
2023/07/27 11:01:25;;;;;;;5.30;2.00;;;19.10;99.90;;;;;;5133804;27;20026;-74
2023/07/27 11:03:50;;;;;;;6.68;2.00;;;19.10;99.90;;;;;;5133510;27;20015;-75
2023/07/27 11:06:17;;;;;;;7.97;1.90;;;19.10;99.90;;;;;;5117598;27;20494;-75
2023/07/27 11:08:43;;;;;;;8.65;1.85;;;19.10;99.90;;;;;;5133504;27;20098;-75
2023/07/27 11:11:17;;;;;;;4.28;1.65;;;19.10;99.90;;;;;;5133588;27;20109;-75
2023/07/27 11:13:42;;;;;;;4.95;1.67;;;19.10;99.90;;;;;;5133498;27;20027;-75
2023/07/27 11:16:08;;;;;;;5.63;1.90;;;19.00;99.90;;;;;;5132480;27;20099;-76
2023/07/27 11:18:34;;;;;;;5.63;2.35;;;19.00;99.90;;;;;;5129408;27;20026;-75
2023/07/27 11:21:02;;;;;;;6.47;2.40;;;19.00;99.90;;;;;;5127093;27;20015;-76
2023/07/27 11:23:29;;;;;;;10.63;3.30;;;19.00;99.90;;;;;;5120298;27;20020;-75
2023/07/27 11:25:56;;;;;;;13.95;2.90;;;19.00;99.90;;;;;;5127019;27;20016;-76
2023/07/27 11:28:22;;;;;;;6.25;2.30;;;19.10;99.90;;;;;;5119318;27;20019;-76
2023/07/27 11:30:52;;;;;;;3.50;1.83;;;19.10;99.90;;;;;;5132958;27;20514;-75
2023/07/27 11:33:21;;;;;;;6.25;2.40;;;19.10;99.90;;;;;;5133230;27;20027;-75
2023/07/27 11:35:47;;;;;;;7.43;2.50;;;19.10;99.90;;;;;;5127949;27;20019;-75
2023/07/27 11:38:13;;;;;;;5.60;2.75;;;19.20;99.90;;;;;;5128795;27;20023;-75
2023/07/27 11:40:44;;;;;;;5.05;1.98;;;19.20;99.90;;;;;;5129809;27;20092;-75
2023/07/27 11:43:10;;;;;;;5.25;1.90;;;19.20;99.90;;;;;;5125251;27;20012;-75
2023/07/27 11:45:38;;;;;;;8.27;2.55;;;19.20;99.90;;;;;;5125787;27;20020;-75
2023/07/27 11:48:04;;;;;;;7.22;2.40;;;19.10;99.90;;;;;;5132849;27;20016;-75
2023/07/27 11:50:30;;;;;;;4.70;2.30;;;19.20;99.90;;;;;;5132572;27;20023;-75
2023/07/27 11:53:02;;;;;;;9.50;2.55;;;19.20;99.90;;;;;;5128792;27;20044;-75
2023/07/27 11:55:34;;;;;;;11.73;2.75;;;19.20;99.90;;;;;;5129312;27;20479;-75
2023/07/27 11:58:03;;;;;;;9.95;2.70;;;19.20;99.90;;;;;;5132276;27;20070;-75
2023/07/27 12:00:29;;;;;;;10.45;3.00;;;19.30;99.90;;;;;;5132567;27;20011;-75
2023/07/27 12:02:54;;;;;;;9.55;3.13;;;19.30;99.90;;;;;;5130561;27;20380;-75
2023/07/27 12:05:22;;;;;;;7.97;3.33;;;19.30;99.90;;;;;;5130369;27;20481;-75
2023/07/27 12:07:52;;;;;;;6.93;3.15;;;19.20;99.90;;;;;;5132803;27;20015;-75
2023/07/27 12:10:20;;;;;;;12.05;3.20;;;19.30;99.90;;;;;;5129514;27;20027;-75
2023/07/27 12:12:59;;;;;;;9.43;3.75;;;19.20;99.90;;;;;;5132415;27;20043;-75
2023/07/27 12:15:29;;;;;;;16.67;4.00;;;19.30;99.90;;;;;;5119963;27;20122;-76
2023/07/27 12:17:57;;;;;;;12.88;3.78;;;19.20;99.90;;;;;;5121337;27;20043;-75
2023/07/27 12:20:24;;;;;;;17.33;4.65;;;19.20;99.90;;;;;;5115475;27;20076;-75
2023/07/27 12:22:49;;;;;;;22.33;5.30;;;19.10;99.90;;;;;;5117399;27;20048;-75
2023/07/27 12:25:15;;;;;;;27.70;5.57;;;19.10;99.90;;;;;;5148435;27;20027;-76
2023/07/27 12:27:41;;;;;;;24.63;5.15;;;19.10;99.90;;;;;;5145058;27;20027;-75
2023/07/27 12:30:07;;;;;;;20.40;5.65;;;19.10;99.90;;;;;;5127603;27;20035;-75
2023/07/27 12:32:33;;;;;;;18.60;5.38;;;19.10;99.90;;;;;;5133482;27;20027;-75
2023/07/27 12:34:59;;;;;;;20.60;5.50;;;19.10;99.90;;;;;;5128074;27;20099;-75
2023/07/27 12:37:24;;;;;;;22.80;5.28;;;19.00;99.90;;;;;;5132484;27;20019;-75
2023/07/27 12:39:50;;;;;;;24.50;6.10;;;19.10;99.90;;;;;;5132338;27;20030;-75
2023/07/27 12:42:16;;;;;;;21.05;5.82;;;19.10;99.90;;;;;;5128788;27;20255;-75
2023/07/27 12:44:41;;;;;;;24.65;6.35;;;19.10;99.90;;;;;;5132566;27;20149;-75